Time,TemperatureF,DewpointF,PressureIn,WindDirection,WindDirectionDegrees,WindSpeedMPH,WindSpeedGustMPH,Humidity,HourlyPrecipIn,Conditions,Clouds,dailyrainin,SoftwareType,DateUTC
2013-04-14 00:02:00,51.6,42.9,29.85,ENE,67,0.0,-999.0,72,-99.99,,,0.00,Acu-Link.com,2013-04-14 04:02:00,
2013-04-14 00:18:00,50.5,42.2,29.85,West,270,0.0,-999.0,73,-99.99,,,0.00,Acu-Link.com,2013-04-14 04:18:00,
2013-04-14 00:33:00,50.2,44.9,29.85,West,270,1.7,-999.0,82,-99.99,,,0.00,Acu-Link.com,2013-04-14 04:33:00,
2013-04-14 00:48:00,50.2,43.6,29.85,West,270,1.7,-999.0,78,-99.99,,,0.00,Acu-Link.com,2013-04-14 04:48:00,
2013-04-14 01:04:00,49.1,42.5,29.85,West,270,1.1,-999.0,78,-99.99,,,0.00,Acu-Link.com,2013-04-14 05:04:00,
2013-04-14 01:19:00,48.7,42.5,29.86,WNW,292,0.0,-999.0,79,-99.99,,,0.00,Acu-Link.com,2013-04-14 05:19:00,
2013-04-14 01:34:00,48.4,42.8,29.86,NNW,337,0.0,-999.0,81,-99.99,,,0.00,Acu-Link.com,2013-04-14 05:34:00,
2013-04-14 01:49:00,47.8,42.3,29.85,North,0,0.0,-999.0,81,-99.99,,,0.00,Acu-Link.com,2013-04-14 05:49:00,
2013-04-14 02:05:00,47.3,42.1,29.85,West,270,0.0,-999.0,82,-99.99,,,0.00,Acu-Link.com,2013-04-14 06:05:00,
2013-04-14 02:20:00,46.6,41.7,29.84,West,270,0.0,-999.0,83,-99.99,,,0.00,Acu-Link.com,2013-04-14 06:20:00,
2013-04-14 02:35:00,46.6,42.3,29.84,SSE,157,0.0,-999.0,85,-99.99,,,0.00,Acu-Link.com,2013-04-14 06:35:00,
2013-04-14 03:21:00,46.4,42.1,29.82,North,0,0.0,-999.0,85,-99.99,,,0.00,Acu-Link.com,2013-04-14 07:21:00,
2013-04-14 03:36:00,46.0,41.4,29.82,WNW,292,0.0,-999.0,84,-99.99,,,0.00,Acu-Link.com,2013-04-14 07:36:00,
2013-04-14 04:08:00,45.3,41.1,29.81,SSW,202,0.0,-999.0,85,-99.99,,,0.00,Acu-Link.com,2013-04-14 08:08:00,
2013-04-14 04:23:00,45.3,41.4,29.81,SSW,202,0.0,-999.0,86,-99.99,,,0.00,Acu-Link.com,2013-04-14 08:23:00,
2013-04-14 04:38:00,45.1,41.2,29.82,West,270,0.0,-999.0,86,-99.99,,,0.00,Acu-Link.com,2013-04-14 08:38:00,
2013-04-14 04:53:00,45.0,41.1,29.82,WSW,247,0.0,-999.0,86,-99.99,,,0.00,Acu-Link.com,2013-04-14 08:53:00,
2013-04-14 05:08:00,44.6,40.7,29.82,South,180,0.0,-999.0,86,-99.99,,,0.00,Acu-Link.com,2013-04-14 09:08:00,
2013-04-14 05:23:00,44.2,40.9,29.83,WSW,247,0.0,-999.0,88,-99.99,,,0.00,Acu-Link.com,2013-04-14 09:23:00,
2013-04-14 05:38:00,44.4,41.1,29.82,WNW,292,0.0,-999.0,88,-99.99,,,0.00,Acu-Link.com,2013-04-14 09:38:00,
2013-04-14 05:54:00,45.1,41.2,29.82,WSW,247,0.0,-999.0,86,-99.99,,,0.00,Acu-Link.com,2013-04-14 09:54:00,
2013-04-14 06:09:00,46.4,41.8,29.82,South,180,0.0,-999.0,84,-99.99,,,0.00,Acu-Link.com,2013-04-14 10:09:00,
2013-04-14 06:24:00,46.8,41.9,29.84,SE,135,0.0,-999.0,83,-99.99,,,0.00,Acu-Link.com,2013-04-14 10:24:00,
2013-04-14 06:40:00,46.8,41.9,29.85,South,180,0.0,-999.0,83,-99.99,,,0.00,Acu-Link.com,2013-04-14 10:40:00,
2013-04-14 06:55:00,47.3,42.1,29.85,NNW,337,0.0,-999.0,82,-99.99,,,0.00,Acu-Link.com,2013-04-14 10:55:00,
2013-04-14 07:10:00,47.1,42.5,29.85,South,180,0.0,-999.0,84,-99.99,,,0.00,Acu-Link.com,2013-04-14 11:10:00,
2013-04-14 07:25:00,47.5,42.6,29.85,SSW,202,0.0,-999.0,83,-99.99,,,0.00,Acu-Link.com,2013-04-14 11:25:00,
2013-04-14 07:56:00,48.7,43.5,29.84,South,180,0.0,-999.0,82,-99.99,,,0.00,Acu-Link.com,2013-04-14 11:56:00,
2013-04-14 08:11:00,49.6,45.0,29.85,ESE,112,0.0,-999.0,84,-99.99,,,0.00,Acu-Link.com,2013-04-14 12:11:00,
2013-04-14 08:26:00,50.9,45.6,29.85,SSE,157,0.0,-999.0,82,-99.99,,,0.00,Acu-Link.com,2013-04-14 12:26:00,
2013-04-14 08:42:00,52.0,46.7,29.85,ESE,112,0.0,-999.0,82,-99.99,,,0.00,Acu-Link.com,2013-04-14 12:42:00,
2013-04-14 08:57:00,53.2,45.8,29.85,ESE,112,0.0,-999.0,76,-99.99,,,0.00,Acu-Link.com,2013-04-14 12:57:00,
2013-04-14 09:12:00,54.5,46.0,29.84,ENE,67,0.0,-999.0,73,-99.99,,,0.00,Acu-Link.com,2013-04-14 13:12:00,
2013-04-14 09:28:00,55.0,45.4,29.84,NNE,22,0.0,-999.0,70,-99.99,,,0.00,Acu-Link.com,2013-04-14 13:28:00,
2013-04-14 09:43:00,56.1,46.8,29.85,SSW,202,0.0,-999.0,71,-99.99,,,0.00,Acu-Link.com,2013-04-14 13:43:00,
2013-04-14 09:58:00,57.0,46.9,29.85,ESE,112,1.7,-999.0,69,-99.99,,,0.00,Acu-Link.com,2013-04-14 13:58:00,
2013-04-14 10:13:00,57.6,45.9,29.84,SSE,157,0.0,-999.0,65,-99.99,,,0.00,Acu-Link.com,2013-04-14 14:13:00,
2013-04-14 10:28:00,58.5,47.2,29.84,ENE,67,0.0,-999.0,66,-99.99,,,0.00,Acu-Link.com,2013-04-14 14:28:00,
2013-04-14 10:44:00,58.6,44.8,29.83,East,90,1.7,-999.0,60,-99.99,,,0.00,Acu-Link.com,2013-04-14 14:44:00,
2013-04-14 10:59:00,59.5,46.5,29.83,ENE,67,2.2,-999.0,62,-99.99,,,0.00,Acu-Link.com,2013-04-14 14:59:00,
2013-04-14 11:14:00,59.4,46.8,29.83,ESE,112,2.2,-999.0,63,-99.99,,,0.00,Acu-Link.com,2013-04-14 15:14:00,
2013-04-14 11:30:00,59.7,46.2,29.84,ESE,112,1.7,-999.0,61,-99.99,,,0.00,Acu-Link.com,2013-04-14 15:30:00,
2013-04-14 11:45:00,60.4,48.2,29.85,SE,135,2.2,-999.0,64,-99.99,,,0.00,Acu-Link.com,2013-04-14 15:45:00,
2013-04-14 12:00:00,61.5,47.0,29.85,SW,225,0.0,-999.0,59,-99.99,,,0.00,Acu-Link.com,2013-04-14 16:00:00,
2013-04-14 12:16:00,62.1,47.1,29.84,SSE,157,1.7,-999.0,58,-99.99,,,0.00,Acu-Link.com,2013-04-14 16:16:00,
2013-04-14 12:31:00,63.1,46.2,29.84,SSE,157,0.0,-999.0,54,-99.99,,,0.00,Acu-Link.com,2013-04-14 16:31:00,
2013-04-14 12:46:00,63.1,47.6,29.83,ESE,112,1.7,-999.0,57,-99.99,,,0.00,Acu-Link.com,2013-04-14 16:46:00,
2013-04-14 13:16:00,62.6,48.5,29.81,SSE,157,1.7,-999.0,60,-99.99,,,0.00,Acu-Link.com,2013-04-14 17:16:00,
2013-04-14 13:32:00,62.8,46.9,29.81,West,270,0.0,-999.0,56,-99.99,,,0.00,Acu-Link.com,2013-04-14 17:32:00,
2013-04-14 13:47:00,63.9,48.8,29.82,SE,135,2.2,-999.0,58,-99.99,,,0.00,Acu-Link.com,2013-04-14 17:47:00,
2013-04-14 14:02:00,63.3,48.3,29.82,SE,135,0.0,-999.0,58,-99.99,,,0.00,Acu-Link.com,2013-04-14 18:02:00,
2013-04-14 14:17:00,64.0,48.5,29.82,SSW,202,2.2,-999.0,57,-99.99,,,0.00,Acu-Link.com,2013-04-14 18:17:00,
2013-04-14 14:32:00,63.9,48.4,29.83,SSE,157,1.7,-999.0,57,-99.99,,,0.00,Acu-Link.com,2013-04-14 18:32:00,
2013-04-14 14:48:00,63.7,48.2,29.83,West,270,2.2,-999.0,57,-99.99,,,0.00,Acu-Link.com,2013-04-14 18:48:00,
2013-04-14 15:03:00,62.8,50.0,29.84,ENE,67,2.7,-999.0,63,-99.99,,,0.00,Acu-Link.com,2013-04-14 19:03:00,
2013-04-14 15:18:00,61.5,49.6,29.84,SSW,202,2.7,-999.0,65,-99.99,,,0.00,Acu-Link.com,2013-04-14 19:18:00,
2013-04-14 15:33:00,60.6,51.1,29.84,SSE,157,1.7,-999.0,71,-99.99,,,0.00,Acu-Link.com,2013-04-14 19:33:00,
2013-04-14 15:49:00,60.8,52.5,29.83,South,180,0.0,-999.0,74,-99.99,,,0.00,Acu-Link.com,2013-04-14 19:49:00,
2013-04-14 16:04:00,60.8,53.2,29.81,ESE,112,2.7,-999.0,76,-99.99,,,0.00,Acu-Link.com,2013-04-14 20:04:00,
2013-04-14 16:19:00,60.1,53.9,29.80,SE,135,1.1,-999.0,80,-99.99,,,0.00,Acu-Link.com,2013-04-14 20:19:00,
2013-04-14 16:34:00,59.4,53.9,29.80,ESE,112,2.2,-999.0,82,-99.99,,,0.01,Acu-Link.com,2013-04-14 20:34:00,
2013-04-14 16:49:00,58.5,54.0,29.79,ESE,112,1.7,-999.0,85,-99.99,,,0.01,Acu-Link.com,2013-04-14 20:49:00,
2013-04-14 17:04:00,58.8,54.6,29.77,NNE,22,0.0,-999.0,86,-99.99,,,0.02,Acu-Link.com,2013-04-14 21:04:00,
2013-04-14 17:20:00,58.8,54.9,29.77,NNW,337,0.0,-999.0,87,-99.99,,,0.02,Acu-Link.com,2013-04-14 21:20:00,
2013-04-14 17:35:00,58.5,54.3,29.76,SSW,202,0.0,-999.0,86,-99.99,,,0.02,Acu-Link.com,2013-04-14 21:35:00,
2013-04-14 17:50:00,58.8,55.3,29.76,SSE,157,0.0,-999.0,88,-99.99,,,0.02,Acu-Link.com,2013-04-14 21:50:00,
2013-04-14 18:05:00,58.1,54.9,29.77,West,270,1.7,-999.0,89,-99.99,,,0.03,Acu-Link.com,2013-04-14 22:05:00,
2013-04-14 18:20:00,57.7,54.8,29.76,NNW,337,0.0,-999.0,90,-99.99,,,0.03,Acu-Link.com,2013-04-14 22:20:00,
2013-04-14 18:36:00,57.6,55.0,29.76,NE,45,0.0,-999.0,91,-99.99,,,0.04,Acu-Link.com,2013-04-14 22:36:00,
2013-04-14 18:51:00,57.4,55.1,29.77,NW,315,0.0,-999.0,92,-99.99,,,0.04,Acu-Link.com,2013-04-14 22:51:00,
2013-04-14 19:22:00,56.8,54.8,29.76,NW,315,0.0,-999.0,93,-99.99,,,0.06,Acu-Link.com,2013-04-14 23:22:00,
2013-04-14 19:52:00,56.3,55.7,29.76,West,270,0.0,-999.0,98,-99.99,,,0.06,Acu-Link.com,2013-04-14 23:52:00,
2013-04-14 20:23:00,55.8,55.2,29.73,South,180,2.2,-999.0,98,-99.99,,,0.06,Acu-Link.com,2013-04-15 00:23:00,
2013-04-14 20:38:00,55.4,54.8,29.74,East,90,2.7,-999.0,98,-99.99,,,0.06,Acu-Link.com,2013-04-15 00:38:00,
2013-04-14 20:53:00,55.2,54.6,29.73,ESE,112,0.0,-999.0,98,-99.99,,,0.06,Acu-Link.com,2013-04-15 00:53:00,
2013-04-14 21:08:00,55.2,54.6,29.74,ESE,112,1.7,-999.0,98,-99.99,,,0.06,Acu-Link.com,2013-04-15 01:08:00,
2013-04-14 21:39:00,55.2,54.6,29.75,NNE,22,0.0,-999.0,98,-99.99,,,0.06,Acu-Link.com,2013-04-15 01:39:00,
2013-04-14 21:54:00,55.2,54.6,29.75,WNW,292,1.1,-999.0,98,-99.99,,,0.06,Acu-Link.com,2013-04-15 01:54:00,
2013-04-14 22:09:00,55.2,54.6,29.75,NNW,337,0.0,-999.0,98,-99.99,,,0.06,Acu-Link.com,2013-04-15 02:09:00,
2013-04-14 22:25:00,55.2,54.6,29.74,ESE,112,0.0,-999.0,98,-99.99,,,0.06,Acu-Link.com,2013-04-15 02:25:00,
2013-04-14 22:40:00,55.2,54.6,29.74,NNW,337,0.0,-999.0,98,-99.99,,,0.06,Acu-Link.com,2013-04-15 02:40:00,
2013-04-14 22:55:00,55.0,54.4,29.75,NW,315,0.0,-999.0,98,-99.99,,,0.06,Acu-Link.com,2013-04-15 02:55:00,
2013-04-14 23:11:00,55.0,54.4,29.76,WNW,292,0.0,-999.0,98,-99.99,,,0.06,Acu-Link.com,2013-04-15 03:11:00,
2013-04-14 23:26:00,55.2,54.6,29.75,SSW,202,0.0,-999.0,98,-99.99,,,0.06,Acu-Link.com,2013-04-15 03:26:00,
2013-04-14 23:56:00,55.2,54.6,29.76,SSW,202,0.0,-999.0,98,-99.99,,,0.06,Acu-Link.com,2013-04-15 03:56:00,